Time;durP1;ratioP1;P1;durP2;ratioP2;P2;SDS_P1;SDS_P2;PMS_P1;PMS_P2;Temp;Humidity;BMP_temperature;BMP_pressure;BME280_temperature;BME280_humidity;BME280_pressure;Samples;Min_cycle;Max_cycle;Signal;HPM_P1;HPM_P2
2022/09/03 00:02:30;;;;;;;1.05;1.00;;;17.80;82.50;;;;;;5070628;28;20044;-48
2022/09/03 00:05:22;;;;;;;3.58;1.60;;;17.70;82.60;;;;;;5071139;28;20464;-48
2022/09/03 00:08:12;;;;;;;1.10;1.10;;;17.60;82.90;;;;;;5070865;28;20560;-44
2022/09/03 00:11:01;;;;;;;5.68;0.95;;;17.50;83.00;;;;;;5071021;28;20225;-44
2022/09/03 00:13:35;;;;;;;2.45;1.15;;;17.70;82.90;;;;;;5070522;28;20056;-44
2022/09/03 00:16:10;;;;;;;1.20;1.10;;;17.70;82.90;;;;;;5070750;28;20025;-47
2022/09/03 00:18:43;;;;;;;1.30;1.08;;;17.70;83.00;;;;;;5070808;28;20484;-40
2022/09/03 00:21:17;;;;;;;1.02;1.00;;;17.70;83.00;;;;;;5071026;28;20029;-44
2022/09/03 00:23:46;;;;;;;2.20;1.00;;;17.60;83.30;;;;;;5070790;28;20028;-44
2022/09/03 00:26:12;;;;;;;2.00;1.25;;;17.50;83.60;;;;;;5070789;28;20021;-44
2022/09/03 00:28:58;;;;;;;6.68;1.38;;;17.50;83.80;;;;;;5071846;28;20028;-45
2022/09/03 00:31:36;;;;;;;1.40;0.98;;;17.40;83.90;;;;;;5074371;28;20401;-45
2022/09/03 00:34:09;;;;;;;3.42;1.30;;;17.30;84.20;;;;;;5073970;28;20460;-46
2022/09/03 00:36:43;;;;;;;5.30;1.50;;;17.30;84.30;;;;;;5074238;28;20032;-47
2022/09/03 00:39:17;;;;;;;1.77;1.20;;;17.20;84.80;;;;;;5074102;28;20115;-46
2022/09/03 00:42:22;;;;;;;4.30;1.55;;;17.10;85.00;;;;;;5074219;28;20108;-45
2022/09/03 00:45:06;;;;;;;4.20;1.10;;;17.10;85.10;;;;;;5074148;28;20016;-44
2022/09/03 00:47:52;;;;;;;1.92;1.40;;;17.10;85.20;;;;;;5074144;28;20021;-47
2022/09/03 00:50:35;;;;;;;3.25;1.10;;;17.10;85.40;;;;;;5073996;28;20029;-46
2022/09/03 00:53:28;;;;;;;1.23;1.13;;;17.10;85.50;;;;;;5073490;28;20484;-43
2022/09/03 00:56:24;;;;;;;2.58;1.30;;;17.10;85.50;;;;;;5075396;28;20401;-46
2022/09/03 00:59:14;;;;;;;1.00;1.00;;;17.10;85.50;;;;;;5073187;28;20051;-44
2022/09/03 01:01:46;;;;;;;2.97;1.13;;;17.10;85.50;;;;;;5073778;28;20055;-46
2022/09/03 01:04:24;;;;;;;2.97;1.00;;;17.10;85.80;;;;;;5073642;28;20021;-46
2022/09/03 01:07:17;;;;;;;1.20;1.10;;;17.10;85.60;;;;;;5073759;28;20029;-47
2022/09/03 01:09:51;;;;;;;1.13;1.08;;;17.10;85.60;;;;;;5073640;28;20025;-45
2022/09/03 01:12:37;;;;;;;1.10;1.08;;;17.10;85.60;;;;;;5073478;28;20028;-44
2022/09/03 01:15:11;;;;;;;;;;;17.20;85.80;;;;;;5074093;28;20082;-50
2022/09/03 01:17:45;;;;;;;2.90;1.10;;;17.10;85.90;;;;;;5073741;28;19915;-45
2022/09/03 01:20:38;;;;;;;1.60;0.90;;;17.10;85.90;;;;;;5073378;28;20636;-44
2022/09/03 01:23:34;;;;;;;2.22;1.35;;;17.10;86.00;;;;;;5073171;28;20067;-45
2022/09/03 01:26:09;;;;;;;1.98;1.02;;;17.10;86.10;;;;;;5073384;28;20016;-44
2022/09/03 01:28:50;;;;;;;1.70;1.10;;;17.10;86.10;;;;;;5073608;28;20035;-44
2022/09/03 01:31:48;;;;;;;1.88;1.02;;;17.10;86.30;;;;;;5073897;28;20035;-48
2022/09/03 01:34:23;;;;;;;1.50;1.13;;;17.10;86.30;;;;;;5073324;28;20036;-45
2022/09/03 01:37:14;;;;;;;1.40;1.30;;;17.00;86.50;;;;;;5073964;28;20028;-46
2022/09/03 01:40:06;;;;;;;5.95;1.35;;;17.00;86.70;;;;;;5073327;28;20021;-46
2022/09/03 01:42:53;;;;;;;4.90;1.02;;;17.00;86.60;;;;;;5041927;28;20036;-45
2022/09/03 01:45:48;;;;;;;2.38;1.10;;;17.00;86.70;;;;;;5073138;28;20032;-43
2022/09/03 01:48:33;;;;;;;4.18;1.20;;;17.10;86.90;;;;;;5073002;28;20495;-44
2022/09/03 01:51:02;;;;;;;0.80;0.80;;;17.00;86.80;;;;;;5072954;28;20028;-43
2022/09/03 01:54:02;;;;;;;6.38;1.00;;;17.10;87.00;;;;;;5072279;28;20037;-43
2022/09/03 01:56:48;;;;;;;1.65;1.20;;;17.00;86.90;;;;;;5072744;28;20491;-47
2022/09/03 01:59:36;;;;;;;1.30;1.10;;;17.00;87.00;;;;;;5071956;28;20438;-46
2022/09/03 02:02:07;;;;;;;2.65;1.08;;;17.10;87.20;;;;;;5072582;28;20027;-46
2022/09/03 02:04:33;;;;;;;1.25;1.15;;;17.10;87.20;;;;;;5073283;28;20032;-43
2022/09/03 02:07:01;;;;;;;1.17;1.17;;;17.20;87.30;;;;;;5072575;28;20029;-42
2022/09/03 02:09:27;;;;;;;2.97;0.98;;;17.10;87.20;;;;;;5072431;28;20081;-44
2022/09/03 02:12:02;;;;;;;1.40;1.20;;;17.20;87.40;;;;;;5072177;28;20028;-44
2022/09/03 02:14:28;;;;;;;1.50;1.40;;;17.20;87.40;;;;;;5072454;28;20095;-43
2022/09/03 02:16:58;;;;;;;1.63;1.20;;;17.10;87.40;;;;;;5072467;28;20029;-46
2022/09/03 02:19:27;;;;;;;5.30;1.00;;;17.10;87.50;;;;;;5072151;28;20029;-44
2022/09/03 02:21:55;;;;;;;1.40;0.95;;;17.10;87.60;;;;;;5071998;28;20028;-44
2022/09/03 02:24:21;;;;;;;0.90;0.90;;;17.20;87.60;;;;;;5072152;28;20124;-46
2022/09/03 02:26:47;;;;;;;1.10;1.05;;;17.10;87.70;;;;;;5072192;28;20495;-43
2022/09/03 02:29:16;;;;;;;4.25;1.10;;;17.10;87.70;;;;;;5072086;28;20036;-43
2022/09/03 02:31:41;;;;;;;8.38;1.63;;;17.10;88.00;;;;;;5072056;28;20029;-44
2022/09/03 02:34:07;;;;;;;2.72;1.00;;;17.10;88.00;;;;;;5071697;28;20510;-46
2022/09/03 02:36:36;;;;;;;5.65;1.38;;;17.10;88.10;;;;;;5071921;28;20029;-44
2022/09/03 02:39:01;;;;;;;2.63;1.13;;;17.10;88.10;;;;;;5071866;28;20127;-44
2022/09/03 02:41:27;;;;;;;1.67;1.27;;;17.10;88.30;;;;;;5072372;28;20170;-46
2022/09/03 02:44:08;;;;;;;0.95;0.95;;;17.20;88.40;;;;;;5071798;28;20021;-45
2022/09/03 02:46:39;;;;;;;2.97;1.13;;;17.10;88.40;;;;;;5071874;28;20078;-46
2022/09/03 02:49:05;;;;;;;4.00;1.35;;;17.10;88.60;;;;;;5071748;28;20128;-43
2022/09/03 02:51:34;;;;;;;2.95;1.10;;;17.10;88.60;;;;;;5071305;28;20115;-44
2022/09/03 02:53:59;;;;;;;3.67;1.08;;;17.10;88.60;;;;;;5071359;28;20028;-45
2022/09/03 02:56:26;;;;;;;2.47;1.02;;;17.10;89.00;;;;;;5053759;28;20082;-44
2022/09/03 02:58:52;;;;;;;2.60;1.10;;;17.10;89.10;;;;;;5071043;28;20020;-48
2022/09/03 03:01:17;;;;;;;1.88;1.00;;;17.10;89.30;;;;;;5072087;28;20024;-43
2022/09/03 03:03:43;;;;;;;5.20;1.00;;;17.10;89.30;;;;;;5071472;28;20504;-41
2022/09/03 03:06:09;;;;;;;1.27;1.00;;;17.20;89.40;;;;;;5071643;28;20017;-48
2022/09/03 03:08:34;;;;;;;1.10;1.00;;;17.20;89.40;;;;;;5071515;28;20020;-47
2022/09/03 03:11:00;;;;;;;1.25;1.10;;;17.20;89.40;;;;;;5071547;28;20032;-45
2022/09/03 03:13:27;;;;;;;4.30;1.10;;;17.10;89.50;;;;;;5071109;28;20039;-45
2022/09/03 03:16:00;;;;;;;0.80;0.80;;;17.10;89.50;;;;;;5071338;28;20163;-42
2022/09/03 03:18:27;;;;;;;0.90;0.90;;;17.10;89.60;;;;;;5071329;28;20064;-44
2022/09/03 03:20:53;;;;;;;2.47;1.05;;;17.20;89.60;;;;;;5071469;28;20024;-45
2022/09/03 03:23:19;;;;;;;5.45;1.27;;;17.20;89.80;;;;;;5071028;28;20020;-45
2022/09/03 03:25:45;;;;;;;2.25;0.98;;;17.10;89.80;;;;;;5071349;28;20020;-43
2022/09/03 03:28:10;;;;;;;0.90;0.90;;;17.20;89.80;;;;;;5071256;28;20025;-47
2022/09/03 03:30:38;;;;;;;6.63;1.35;;;17.20;89.90;;;;;;5071170;28;20028;-48
2022/09/03 03:33:05;;;;;;;2.67;2.15;;;17.20;90.00;;;;;;5070952;28;20025;-46
2022/09/03 03:35:30;;;;;;;1.08;1.00;;;17.20;90.10;;;;;;5071541;28;20028;-41
2022/09/03 03:37:59;;;;;;;1.33;1.17;;;17.20;90.10;;;;;;5071293;28;20028;-46
2022/09/03 03:40:25;;;;;;;3.20;1.20;;;17.20;90.10;;;;;;5071110;28;20492;-44
2022/09/03 03:42:50;;;;;;;1.33;1.23;;;17.20;90.10;;;;;;5070786;28;20028;-44
2022/09/03 03:45:16;;;;;;;7.07;1.20;;;17.20;90.10;;;;;;5071254;28;20240;-45
2022/09/03 03:47:41;;;;;;;1.10;1.10;;;17.20;90.10;;;;;;5071153;28;20020;-43
2022/09/03 03:50:07;;;;;;;1.58;1.20;;;17.20;90.20;;;;;;5071079;28;20174;-46
2022/09/03 03:52:33;;;;;;;1.40;1.30;;;17.30;90.10;;;;;;5071850;28;20493;-46
2022/09/03 03:54:58;;;;;;;1.48;1.10;;;17.30;90.10;;;;;;5071140;28;20496;-46
2022/09/03 03:57:24;;;;;;;1.27;1.20;;;17.30;90.20;;;;;;5070458;28;20029;-45
2022/09/03 03:59:50;;;;;;;1.20;1.10;;;17.30;90.20;;;;;;5070933;28;20024;-43
2022/09/03 04:02:16;;;;;;;1.10;1.00;;;17.30;90.30;;;;;;5070673;28;20016;-45
2022/09/03 04:04:42;;;;;;;0.90;0.82;;;17.30;90.20;;;;;;5074184;28;20016;-44
2022/09/03 04:07:08;;;;;;;2.50;1.02;;;17.30;90.20;;;;;;5074843;28;20449;-43
2022/09/03 04:09:34;;;;;;;1.55;1.00;;;17.40;90.30;;;;;;5074728;28;20103;-44
2022/09/03 04:12:00;;;;;;;1.90;1.00;;;17.40;90.30;;;;;;5074389;28;20115;-44
2022/09/03 04:14:26;;;;;;;2.22;1.13;;;17.30;90.30;;;;;;5074812;28;20331;-43
2022/09/03 04:16:55;;;;;;;3.50;1.77;;;17.40;90.40;;;;;;5074635;28;20078;-43
2022/09/03 04:19:21;;;;;;;2.22;1.23;;;17.40;90.40;;;;;;5074516;28;20020;-44
2022/09/03 04:21:47;;;;;;;6.47;2.15;;;17.40;90.50;;;;;;5074652;28;20442;-43
2022/09/03 04:24:12;;;;;;;7.05;1.23;;;17.40;90.50;;;;;;5074495;28;20059;-44
2022/09/03 04:26:38;;;;;;;1.38;1.10;;;17.40;90.50;;;;;;5074650;28;20576;-43
2022/09/03 04:29:07;;;;;;;4.85;1.05;;;17.40;90.50;;;;;;5074269;28;20029;-44
2022/09/03 04:31:33;;;;;;;2.08;1.70;;;17.40;90.60;;;;;;5056379;28;20082;-43
2022/09/03 04:33:59;;;;;;;5.68;2.78;;;17.40;90.60;;;;;;5074169;28;20446;-45
2022/09/03 04:36:27;;;;;;;4.53;3.28;;;17.40;90.70;;;;;;5074355;28;20028;-46
2022/09/03 04:38:54;;;;;;;3.95;3.00;;;17.50;90.60;;;;;;5074057;28;20035;-43
2022/09/03 04:41:23;;;;;;;3.55;2.90;;;17.50;90.60;;;;;;5074465;28;20461;-45
2022/09/03 04:43:51;;;;;;;4.82;3.25;;;17.50;90.60;;;;;;5073685;28;20526;-47
2022/09/03 04:46:17;;;;;;;3.95;3.63;;;17.50;90.50;;;;;;5074185;28;20025;-44
2022/09/03 04:48:46;;;;;;;3.92;2.40;;;17.50;90.60;;;;;;5074048;28;20488;-43
2022/09/03 04:51:15;;;;;;;3.15;2.78;;;17.60;90.60;;;;;;5074052;28;20028;-43
2022/09/03 04:53:44;;;;;;;3.70;3.40;;;17.60;90.60;;;;;;5073686;28;20031;-45
2022/09/03 04:56:22;;;;;;;5.40;2.90;;;17.60;90.70;;;;;;5074105;28;20027;-49
2022/09/03 04:58:52;;;;;;;2.47;2.20;;;17.60;90.80;;;;;;5073396;28;20035;-44
2022/09/03 05:01:20;;;;;;;1.95;1.65;;;17.60;90.90;;;;;;5073905;28;20383;-43
2022/09/03 05:03:45;;;;;;;1.80;1.70;;;17.60;91.00;;;;;;5073539;28;20089;-43
2022/09/03 05:06:11;;;;;;;4.15;2.42;;;17.60;91.10;;;;;;5074060;28;20025;-44
2022/09/03 05:08:37;;;;;;;1.45;1.35;;;17.70;91.20;;;;;;5073474;28;20495;-44
2022/09/03 05:11:04;;;;;;;3.72;1.92;;;17.60;91.30;;;;;;5073622;28;20027;-46
2022/09/03 05:13:30;;;;;;;3.10;1.58;;;17.60;91.40;;;;;;5073397;28;20046;-43
2022/09/03 05:16:00;;;;;;;1.50;1.50;;;17.60;91.50;;;;;;5073167;28;20059;-45
2022/09/03 05:18:26;;;;;;;1.98;1.40;;;17.60;91.60;;;;;;5073619;28;20028;-43
2022/09/03 05:20:59;;;;;;;5.97;1.60;;;17.60;91.60;;;;;;5073585;28;20029;-43
2022/09/03 05:23:26;;;;;;;2.05;1.95;;;17.70;91.90;;;;;;5073481;28;20119;-44
2022/09/03 05:25:59;;;;;;;7.40;1.85;;;17.60;91.80;;;;;;5073440;28;20090;-48
2022/09/03 05:28:29;;;;;;;6.82;1.90;;;17.60;92.00;;;;;;5073263;28;20028;-43
2022/09/03 05:31:04;;;;;;;1.42;1.30;;;17.60;92.20;;;;;;5073345;28;20433;-45
2022/09/03 05:33:36;;;;;;;5.80;1.20;;;17.60;92.20;;;;;;5072897;28;20055;-45
2022/09/03 05:36:08;;;;;;;2.90;1.10;;;17.50;92.30;;;;;;5073151;28;20369;-43
2022/09/03 05:38:34;;;;;;;1.65;1.50;;;17.50;92.60;;;;;;5072933;28;20043;-46
2022/09/03 05:41:01;;;;;;;4.32;1.50;;;17.50;92.70;;;;;;5072923;28;20044;-43
2022/09/03 05:43:28;;;;;;;4.40;1.75;;;17.60;92.90;;;;;;5072698;28;20021;-47
2022/09/03 05:46:02;;;;;;;2.40;2.20;;;17.60;92.90;;;;;;5072960;28;20086;-42
2022/09/03 05:48:32;;;;;;;1.38;1.33;;;17.50;93.10;;;;;;5073305;28;20029;-43
2022/09/03 05:51:08;;;;;;;5.43;2.08;;;17.60;93.10;;;;;;5072942;28;20029;-43
2022/09/03 05:53:36;;;;;;;4.07;2.20;;;17.60;93.30;;;;;;5072223;28;20118;-44
2022/09/03 05:56:16;;;;;;;1.83;1.60;;;17.70;93.20;;;;;;5072737;28;20032;-45
2022/09/03 05:58:44;;;;;;;5.35;2.58;;;17.60;93.60;;;;;;5072138;28;20020;-42
2022/09/03 06:01:30;;;;;;;2.25;1.83;;;17.50;93.80;;;;;;5072509;28;20028;-45
2022/09/03 06:03:58;;;;;;;3.75;1.50;;;17.60;94.00;;;;;;5072374;28;20063;-44
2022/09/03 06:06:25;;;;;;;3.78;1.52;;;17.60;94.00;;;;;;5072669;28;20063;-43
2022/09/03 06:08:56;;;;;;;3.40;1.60;;;17.60;94.10;;;;;;5072819;28;20024;-45
2022/09/03 06:11:26;;;;;;;1.48;1.25;;;17.60;94.00;;;;;;5072498;28;20020;-43
2022/09/03 06:13:55;;;;;;;4.03;1.25;;;17.60;94.00;;;;;;5072005;28;20222;-44
2022/09/03 06:16:21;;;;;;;1.30;1.20;;;17.60;94.10;;;;;;5072309;28;20024;-43
2022/09/03 06:18:48;;;;;;;1.55;1.45;;;17.60;94.60;;;;;;5072163;28;20024;-44
2022/09/03 06:21:14;;;;;;;2.88;1.25;;;17.60;95.40;;;;;;5072593;28;20021;-44
2022/09/03 06:23:40;;;;;;;4.60;1.30;;;17.70;94.40;;;;;;5071947;28;20106;-41
2022/09/03 06:26:10;;;;;;;4.57;1.40;;;17.70;94.50;;;;;;5071513;28;20499;-43
2022/09/03 06:28:40;;;;;;;13.70;1.67;;;17.70;96.80;;;;;;5072135;28;20115;-44
2022/09/03 06:31:08;;;;;;;4.22;1.42;;;17.80;97.50;;;;;;5072152;28;20052;-41
2022/09/03 06:33:36;;;;;;;1.35;1.20;;;17.60;98.90;;;;;;5071789;28;20024;-43
2022/09/03 06:36:03;;;;;;;2.22;1.42;;;17.50;98.00;;;;;;5072131;28;20464;-43
2022/09/03 06:38:31;;;;;;;2.17;1.40;;;17.60;99.50;;;;;;5071999;28;20032;-45
2022/09/03 06:41:02;;;;;;;1.92;1.35;;;17.60;99.10;;;;;;5072395;28;20052;-44
2022/09/03 06:43:30;;;;;;;4.10;1.90;;;17.50;99.90;;;;;;5071637;28;20021;-42
2022/09/03 06:45:58;;;;;;;2.97;1.45;;;17.60;99.90;;;;;;5071734;28;20036;-45
2022/09/03 06:48:25;;;;;;;2.35;1.50;;;17.60;99.90;;;;;;5071878;28;20059;-43
2022/09/03 06:51:01;;;;;;;4.50;1.58;;;17.60;99.90;;;;;;5073074;28;20514;-42
2022/09/03 06:53:33;;;;;;;4.03;2.13;;;17.80;99.90;;;;;;5073803;28;20054;-44
2022/09/03 06:56:00;;;;;;;2.25;1.33;;;17.90;99.90;;;;;;5072423;28;20409;-45
2022/09/03 06:58:31;;;;;;;1.77;1.40;;;18.10;99.90;;;;;;5070956;28;20510;-44
2022/09/03 07:01:05;;;;;;;6.82;1.30;;;18.30;99.90;;;;;;5071730;28;20020;-43
2022/09/03 07:03:32;;;;;;;2.00;1.50;;;18.30;99.90;;;;;;5071238;28;20025;-44
2022/09/03 07:06:01;;;;;;;2.00;1.35;;;18.40;99.20;;;;;;5071571;28;20024;-44
2022/09/03 07:08:27;;;;;;;2.65;1.60;;;18.40;99.00;;;;;;5071390;28;20040;-45
2022/09/03 07:10:53;;;;;;;4.32;1.88;;;18.30;99.10;;;;;;5071680;28;20028;-44
2022/09/03 07:13:19;;;;;;;2.83;1.42;;;18.30;99.40;;;;;;5071195;28;20035;-47
2022/09/03 07:15:45;;;;;;;4.95;1.25;;;18.20;99.90;;;;;;5071350;28;20154;-47
2022/09/03 07:18:11;;;;;;;6.63;1.70;;;18.20;99.90;;;;;;5071373;28;20032;-48
2022/09/03 07:20:36;;;;;;;2.42;1.77;;;18.20;99.60;;;;;;5071654;28;20024;-46
2022/09/03 07:23:02;;;;;;;3.95;1.52;;;18.10;99.90;;;;;;5071178;28;20028;-47
2022/09/03 07:25:30;;;;;;;1.67;1.58;;;18.00;99.90;;;;;;5071434;28;20039;-46
2022/09/03 07:27:56;;;;;;;1.42;1.35;;;17.90;99.90;;;;;;5053431;28;20025;-45
2022/09/03 07:30:24;;;;;;;1.73;1.55;;;17.90;99.90;;;;;;5071159;28;20103;-43
2022/09/03 07:32:50;;;;;;;3.90;1.60;;;17.80;99.90;;;;;;5071058;28;20039;-42
2022/09/03 07:35:17;;;;;;;4.78;1.65;;;17.80;99.90;;;;;;5071286;28;20029;-49
2022/09/03 07:37:42;;;;;;;3.97;1.90;;;17.90;99.90;;;;;;5073090;28;20028;-43
2022/09/03 07:40:11;;;;;;;3.00;1.60;;;17.80;99.90;;;;;;5075248;28;20411;-47
2022/09/03 07:42:40;;;;;;;2.97;1.70;;;17.70;99.90;;;;;;5074980;28;20029;-46
2022/09/03 07:45:09;;;;;;;6.00;1.88;;;17.50;99.90;;;;;;5075261;28;20025;-41
2022/09/03 07:47:36;;;;;;;7.03;2.50;;;17.40;99.90;;;;;;5075408;28;20476;-47
2022/09/03 07:50:03;;;;;;;3.50;1.85;;;17.40;99.90;;;;;;5075868;28;20021;-42
2022/09/03 07:52:29;;;;;;;6.53;2.63;;;17.40;99.90;;;;;;5075939;28;20034;-45
2022/09/03 07:54:54;;;;;;;1.92;1.83;;;17.40;99.90;;;;;;5075076;28;20024;-42
2022/09/03 07:57:20;;;;;;;7.50;2.47;;;17.30;99.90;;;;;;5074425;28;20036;-44
2022/09/03 07:59:45;;;;;;;8.98;2.53;;;17.20;99.90;;;;;;5074967;28;20108;-44
2022/09/03 08:02:10;;;;;;;3.80;1.95;;;17.20;99.90;;;;;;5074698;28;20021;-43
2022/09/03 08:04:37;;;;;;;3.63;2.95;;;17.20;99.90;;;;;;5074872;28;20021;-45
2022/09/03 08:07:03;;;;;;;8.27;2.55;;;17.20;99.90;;;;;;5075040;28;20028;-41
2022/09/03 08:09:28;;;;;;;7.72;2.30;;;17.20;99.90;;;;;;5074940;28;20074;-45
2022/09/03 08:11:54;;;;;;;5.40;2.10;;;17.30;99.90;;;;;;5074446;28;20103;-44
2022/09/03 08:14:20;;;;;;;9.80;2.35;;;17.40;99.90;;;;;;5074618;28;20020;-44
2022/09/03 08:16:46;;;;;;;4.90;2.85;;;17.50;99.90;;;;;;5074564;28;20024;-43
2022/09/03 08:19:13;;;;;;;9.23;2.83;;;17.40;99.90;;;;;;5074433;28;20108;-43
2022/09/03 08:21:42;;;;;;;2.95;2.35;;;17.40;99.90;;;;;;5074851;28;20024;-43
2022/09/03 08:24:09;;;;;;;4.00;2.50;;;17.40;99.90;;;;;;5074355;28;20074;-44
2022/09/03 08:26:37;;;;;;;4.60;2.63;;;17.50;99.90;;;;;;5074629;28;20025;-43
2022/09/03 08:29:04;;;;;;;7.05;2.58;;;17.70;99.90;;;;;;5074393;28;20028;-45
2022/09/03 08:31:31;;;;;;;6.50;2.78;;;18.10;99.90;;;;;;5074389;28;20480;-45
2022/09/03 08:33:58;;;;;;;7.32;2.50;;;18.70;99.90;;;;;;5073989;28;20446;-43
2022/09/03 08:36:31;;;;;;;7.78;2.28;;;19.30;99.90;;;;;;5056218;28;20024;-44
2022/09/03 08:39:02;;;;;;;3.30;1.90;;;19.90;99.90;;;;;;5074171;28;20024;-47
2022/09/03 08:41:49;;;;;;;8.55;2.92;;;20.70;99.90;;;;;;5074322;28;20553;-46
2022/09/03 08:44:46;;;;;;;2.58;2.08;;;20.90;99.90;;;;;;5074038;28;20029;-47
2022/09/03 08:47:26;;;;;;;3.75;1.65;;;20.80;99.90;;;;;;5070913;28;20424;-47
2022/09/03 08:50:18;;;;;;;3.28;1.60;;;20.40;99.90;;;;;;5073387;28;20104;-45
2022/09/03 08:53:00;;;;;;;5.00;2.17;;;20.10;99.90;;;;;;5073662;28;20508;-44
2022/09/03 08:55:35;;;;;;;2.33;1.70;;;19.90;99.90;;;;;;5073929;28;20028;-48
2022/09/03 08:58:17;;;;;;;2.55;2.25;;;19.80;99.90;;;;;;5073377;28;20024;-44
2022/09/03 09:01:00;;;;;;;3.15;1.60;;;19.60;99.90;;;;;;5073853;28;20025;-44
2022/09/03 09:03:42;;;;;;;2.35;1.80;;;19.40;99.90;;;;;;5073241;28;20029;-46
2022/09/03 09:06:45;;;;;;;2.78;2.10;;;19.30;99.90;;;;;;5073853;28;20017;-46
2022/09/03 09:09:37;;;;;;;1.80;1.67;;;19.10;99.90;;;;;;5073788;28;20086;-49
2022/09/03 09:12:33;;;;;;;3.05;1.70;;;19.00;99.90;;;;;;5073461;28;20028;-49
2022/09/03 09:15:25;;;;;;;4.07;2.22;;;18.80;99.90;;;;;;5073561;28;20028;-45
2022/09/03 09:18:14;;;;;;;5.40;1.92;;;18.70;99.90;;;;;;5073415;28;20116;-42
2022/09/03 09:21:01;;;;;;;2.63;1.98;;;18.60;99.90;;;;;;5055468;28;20078;-44
2022/09/03 09:23:41;;;;;;;4.60;2.53;;;18.50;99.90;;;;;;5055248;28;20289;-44
2022/09/03 09:26:12;;;;;;;4.53;2.80;;;18.70;99.90;;;;;;5073380;28;20027;-48
2022/09/03 09:28:38;;;;;;;2.95;2.55;;;18.90;99.90;;;;;;5073322;28;20032;-47
2022/09/03 09:31:06;;;;;;;5.22;3.35;;;19.10;99.90;;;;;;5073457;28;20029;-47
2022/09/03 09:33:33;;;;;;;3.63;3.33;;;19.10;99.90;;;;;;5055260;28;20195;-44
2022/09/03 09:36:07;;;;;;;15.02;8.10;;;19.00;99.90;;;;;;5073568;28;20056;-44
2022/09/03 09:38:35;;;;;;;7.45;4.03;;;19.00;99.90;;;;;;5073157;28;20100;-44
2022/09/03 09:41:18;;;;;;;4.97;2.42;;;19.10;99.90;;;;;;5073044;28;20017;-46
2022/09/03 09:43:46;;;;;;;3.28;2.30;;;19.20;99.90;;;;;;5072767;28;20036;-45
2022/09/03 09:46:27;;;;;;;5.97;2.95;;;19.20;99.90;;;;;;5072993;28;20111;-43
2022/09/03 09:48:56;;;;;;;4.75;2.30;;;19.20;99.90;;;;;;5073323;28;20056;-44
2022/09/03 09:51:25;;;;;;;8.25;2.83;;;19.10;99.90;;;;;;5072841;28;20040;-42
2022/09/03 09:54:01;;;;;;;3.25;2.38;;;19.10;99.90;;;;;;5073466;28;20033;-44
2022/09/03 09:56:27;;;;;;;2.97;2.28;;;19.20;99.90;;;;;;5072953;28;20438;-43
2022/09/03 09:59:10;;;;;;;5.40;2.78;;;19.50;99.90;;;;;;5072740;28;20209;-44
2022/09/03 10:01:38;;;;;;;8.95;2.10;;;19.50;99.90;;;;;;5071577;28;20078;-42
2022/09/03 10:04:21;;;;;;;9.68;2.33;;;19.70;99.90;;;;;;5072118;28;20025;-43
2022/09/03 10:06:55;;;;;;;3.28;2.05;;;19.90;99.90;;;;;;5072731;28;20082;-46
2022/09/03 10:09:31;;;;;;;4.03;2.00;;;19.90;99.90;;;;;;5072498;28;20028;-40
2022/09/03 10:12:18;;;;;;;4.53;2.03;;;20.20;99.90;;;;;;5072064;28;20043;-42
2022/09/03 10:14:52;;;;;;;3.63;2.35;;;20.70;99.90;;;;;;5072554;28;20024;-46
2022/09/03 10:17:34;;;;;;;2.55;2.30;;;21.10;99.90;;;;;;5072468;28;20020;-42
2022/09/03 10:20:26;;;;;;;4.47;2.50;;;21.30;99.90;;;;;;5072215;28;20442;-43
2022/09/03 10:23:04;;;;;;;9.70;2.88;;;21.50;99.90;;;;;;5072032;28;20017;-43
2022/09/03 10:25:38;;;;;;;3.78;2.50;;;21.50;99.90;;;;;;5072311;28;20123;-44
2022/09/03 10:28:07;;;;;;;3.27;2.97;;;21.30;99.90;;;;;;5072287;28;20079;-44
2022/09/03 10:30:59;;;;;;;3.05;2.75;;;21.40;99.90;;;;;;5072128;28;20032;-42
2022/09/03 10:33:32;;;;;;;4.07;2.78;;;21.40;99.90;;;;;;5071648;28;20107;-43
2022/09/03 10:36:23;;;;;;;6.90;3.33;;;21.60;99.90;;;;;;5072162;28;20029;-42
2022/09/03 10:39:04;;;;;;;2.95;2.65;;;21.80;99.90;;;;;;5042501;28;20123;-43
2022/09/03 10:41:46;;;;;;;4.93;2.67;;;21.90;99.90;;;;;;5071955;28;20055;-44
2022/09/03 10:44:49;;;;;;;2.75;2.38;;;22.10;99.90;;;;;;5071795;28;20103;-46
2022/09/03 10:47:18;;;;;;;3.53;2.80;;;22.00;99.80;;;;;;5071777;28;20108;-44
2022/09/03 10:49:57;;;;;;;3.70;2.80;;;22.00;99.90;;;;;;5071752;28;20419;-43
2022/09/03 10:52:46;;;;;;;3.22;2.58;;;21.90;99.90;;;;;;5071283;28;20035;-43
2022/09/03 10:55:46;;;;;;;3.67;2.90;;;21.70;99.90;;;;;;5053764;28;20074;-44
2022/09/03 10:58:26;;;;;;;4.57;2.40;;;21.60;99.90;;;;;;5070965;28;20027;-46
2022/09/03 11:01:00;;;;;;;3.17;2.80;;;21.50;99.90;;;;;;5071716;28;20120;-46
2022/09/03 11:03:42;;;;;;;6.03;2.95;;;21.60;99.90;;;;;;5071270;28;20025;-40
2022/09/03 11:06:20;;;;;;;3.25;2.60;;;21.80;99.90;;;;;;5071571;28;20082;-43
2022/09/03 11:08:54;;;;;;;4.57;2.80;;;21.90;99.90;;;;;;5071512;28;20028;-43
2022/09/03 11:11:26;;;;;;;4.72;3.55;;;22.00;99.90;;;;;;5071581;28;20373;-42
2022/09/03 11:14:11;;;;;;;3.25;2.83;;;22.10;99.90;;;;;;5052882;28;20488;-43
2022/09/03 11:17:02;;;;;;;3.50;3.05;;;22.10;99.90;;;;;;5071361;28;20086;-43
2022/09/03 11:19:44;;;;;;;4.00;3.63;;;22.20;99.90;;;;;;5071390;28;20124;-44
2022/09/03 11:22:12;;;;;;;4.57;2.85;;;22.30;99.90;;;;;;5074535;28;20021;-45
2022/09/03 11:24:39;;;;;;;3.00;2.80;;;22.30;99.90;;;;;;5071685;28;20104;-45
2022/09/03 11:27:50;;;;;;;3.90;3.30;;;22.50;99.90;;;;;;5071740;28;20024;-45
2022/09/03 11:30:39;;;;;;;3.92;3.10;;;22.50;99.90;;;;;;4989766;28;20026;-43
2022/09/03 11:33:08;;;;;;;6.95;3.55;;;22.60;99.80;;;;;;5066818;28;20040;-44
2022/09/03 11:35:33;;;;;;;3.95;3.13;;;22.50;99.90;;;;;;5071685;28;20056;-47
2022/09/03 11:38:15;;;;;;;3.40;3.10;;;22.40;99.80;;;;;;5071400;28;20060;-46
2022/09/03 11:41:14;;;;;;;3.20;2.80;;;22.40;99.90;;;;;;5071574;28;20016;-43
2022/09/03 11:43:41;;;;;;;2.97;2.65;;;22.40;99.90;;;;;;5070992;28;20589;-41
2022/09/03 11:46:29;;;;;;;6.15;2.75;;;22.30;99.90;;;;;;5071189;28;20105;-45
2022/09/03 11:48:57;;;;;;;5.20;2.80;;;22.20;99.90;;;;;;5071142;28;20025;-46
2022/09/03 11:51:36;;;;;;;3.03;2.80;;;22.20;99.90;;;;;;5071032;28;20039;-44
2022/09/03 11:54:13;;;;;;;4.72;3.70;;;22.10;99.90;;;;;;5070766;28;20028;-45
2022/09/03 11:56:40;;;;;;;2.97;2.60;;;21.90;99.90;;;;;;5071235;28;20024;-46
2022/09/03 11:59:22;;;;;;;4.35;2.90;;;21.70;99.90;;;;;;5070805;28;20135;-44
2022/09/03 12:01:52;;;;;;;4.65;2.80;;;21.60;99.90;;;;;;5070902;28;20122;-42
2022/09/03 12:04:21;;;;;;;2.92;2.60;;;21.50;99.90;;;;;;5070819;28;20441;-46
2022/09/03 12:07:15;;;;;;;3.55;3.13;;;21.50;99.90;;;;;;5071338;28;20024;-44
2022/09/03 12:10:01;;;;;;;3.92;2.67;;;21.60;99.90;;;;;;5070705;28;20110;-42
2022/09/03 12:12:44;;;;;;;2.70;2.50;;;21.60;99.90;;;;;;5070494;28;20466;-44
2022/09/03 12:15:47;;;;;;;6.20;2.97;;;21.60;99.90;;;;;;5071155;28;20434;-40
2022/09/03 12:18:22;;;;;;;3.30;2.90;;;21.60;99.90;;;;;;5071123;28;20392;-43
2022/09/03 12:20:51;;;;;;;2.90;2.70;;;21.60;99.90;;;;;;5070926;28;20385;-45
2022/09/03 12:23:30;;;;;;;3.03;2.70;;;21.70;99.90;;;;;;5070514;28;20082;-45
2022/09/03 12:26:07;;;;;;;5.25;2.42;;;21.70;99.90;;;;;;5074221;28;20024;-45
2022/09/03 12:28:40;;;;;;;3.03;2.83;;;21.60;99.90;;;;;;5074238;28;20025;-46
2022/09/03 12:31:21;;;;;;;2.22;2.05;;;21.70;99.90;;;;;;5074346;28;20024;-43
2022/09/03 12:33:50;;;;;;;17.38;5.70;;;21.80;99.90;;;;;;5074643;28;20096;-45
2022/09/03 12:36:16;;;;;;;2.17;2.00;;;21.80;99.90;;;;;;5074395;28;20047;-43
2022/09/03 12:38:41;;;;;;;3.95;2.25;;;21.80;99.90;;;;;;5074111;28;20024;-43
2022/09/03 12:41:26;;;;;;;3.10;2.90;;;21.90;99.90;;;;;;5074530;28;20017;-44
2022/09/03 12:43:55;;;;;;;4.05;3.00;;;22.00;99.90;;;;;;5074128;28;20039;-43
2022/09/03 12:46:26;;;;;;;3.28;2.80;;;22.10;99.90;;;;;;5074289;28;20391;-43
2022/09/03 12:49:04;;;;;;;2.70;2.50;;;22.10;99.90;;;;;;5074134;28;20028;-42
2022/09/03 12:51:36;;;;;;;2.58;2.38;;;22.20;99.90;;;;;;5074245;28;20023;-42
2022/09/03 12:54:06;;;;;;;4.65;2.40;;;22.40;99.90;;;;;;5073686;28;20086;-42
2022/09/03 12:56:34;;;;;;;2.50;2.30;;;22.60;99.90;;;;;;5074186;28;20449;-44
2022/09/03 12:59:12;;;;;;;3.00;1.75;;;22.70;99.90;;;;;;5073535;28;20480;-45
2022/09/03 13:02:02;;;;;;;1.48;1.38;;;22.80;99.90;;;;;;5073891;28;20032;-46
2022/09/03 13:04:32;;;;;;;2.03;1.65;;;22.90;99.90;;;;;;5073871;28;20086;-47
2022/09/03 13:07:10;;;;;;;2.90;1.88;;;23.00;99.90;;;;;;5055860;28;20028;-47
2022/09/03 13:09:39;;;;;;;2.25;2.00;;;23.10;99.70;;;;;;5073630;28;20037;-44
2022/09/03 13:12:04;;;;;;;2.10;1.98;;;23.00;99.80;;;;;;5073337;28;20035;-46
2022/09/03 13:14:50;;;;;;;1.60;1.52;;;22.90;99.90;;;;;;5073820;28;20037;-43
2022/09/03 13:17:37;;;;;;;2.10;1.75;;;23.00;99.90;;;;;;5073125;28;20041;-45
2022/09/03 13:20:40;;;;;;;1.33;1.23;;;23.00;99.40;;;;;;5055117;28;20055;-46
2022/09/03 13:23:29;;;;;;;2.20;1.70;;;23.00;99.30;;;;;;5073102;28;20237;-42